createdAt,value
2017-10-14T00:00:59.925Z,0
2017-10-14T00:01:59.928Z,0
2017-10-14T00:02:59.942Z,0
2017-10-14T00:03:59.971Z,0
2017-10-14T00:04:59.997Z,0
2017-10-14T00:06:00.009Z,0
2017-10-14T00:07:00.044Z,0
2017-10-14T00:08:00.058Z,0
2017-10-14T00:09:00.074Z,0
2017-10-14T00:10:00.097Z,0
2017-10-14T00:11:00.116Z,0
2017-10-14T00:12:00.802Z,0
2017-10-14T00:13:00.189Z,0
2017-10-14T00:14:00.179Z,0
2017-10-14T00:15:00.196Z,0
2017-10-14T00:16:00.229Z,0
2017-10-14T00:17:00.250Z,0
2017-10-14T00:18:00.519Z,0
2017-10-14T00:19:00.298Z,0
2017-10-14T00:20:00.302Z,0
2017-10-14T00:21:00.658Z,0
2017-10-14T00:22:00.343Z,0
2017-10-14T00:23:00.382Z,0
2017-10-14T00:24:00.386Z,0
2017-10-14T00:25:00.733Z,0
2017-10-14T00:26:00.433Z,0
2017-10-14T00:27:00.455Z,0
2017-10-14T00:28:00.493Z,0
2017-10-14T00:29:00.865Z,0
2017-10-14T00:30:00.513Z,0
2017-10-14T00:31:00.534Z,0
2017-10-14T00:32:00.555Z,0
2017-10-14T00:33:00.591Z,0
2017-10-14T00:34:00.652Z,0
2017-10-14T00:35:00.634Z,0
2017-10-14T00:36:00.635Z,0
2017-10-14T00:37:00.663Z,0
2017-10-14T00:38:01.008Z,0
2017-10-14T00:39:00.716Z,0
2017-10-14T00:40:00.724Z,0
2017-10-14T00:41:00.751Z,0
2017-10-14T00:42:00.762Z,0
2017-10-14T00:43:00.789Z,0
2017-10-14T00:44:00.807Z,0
2017-10-14T00:45:00.834Z,0
2017-10-14T00:46:01.171Z,0
2017-10-14T00:47:00.873Z,0
2017-10-14T00:48:00.884Z,0
2017-10-14T00:49:00.915Z,0
2017-10-14T00:50:00.932Z,0
2017-10-14T00:51:00.968Z,0
2017-10-14T00:52:00.998Z,0
2017-10-14T00:53:00.994Z,0
2017-10-14T00:54:01.013Z,0
2017-10-14T00:55:01.037Z,0
2017-10-14T00:56:01.061Z,0
2017-10-14T00:57:01.068Z,0
2017-10-14T00:58:01.082Z,0
2017-10-14T00:59:01.105Z,0
2017-10-14T01:00:01.138Z,0
2017-10-14T01:01:01.176Z,0
2017-10-14T01:02:01.497Z,0
2017-10-14T01:03:01.203Z,0
2017-10-14T01:04:01.214Z,0
2017-10-14T01:05:01.235Z,0
2017-10-14T01:06:01.259Z,0
2017-10-14T01:07:01.292Z,0
2017-10-14T01:08:01.298Z,0
2017-10-14T01:09:01.316Z,0
2017-10-14T01:10:01.387Z,0
2017-10-14T01:11:01.365Z,0
2017-10-14T01:12:01.707Z,0
2017-10-14T01:13:01.406Z,0
2017-10-14T01:14:01.422Z,0
2017-10-14T01:15:01.454Z,0
2017-10-14T01:16:01.465Z,0
2017-10-14T01:17:01.502Z,0
2017-10-14T01:18:01.512Z,0
2017-10-14T01:19:01.866Z,0
2017-10-14T01:20:01.541Z,0
2017-10-14T01:21:01.576Z,0
2017-10-14T01:22:01.586Z,0
2017-10-14T01:23:01.947Z,0
2017-10-14T01:24:01.950Z,0
2017-10-14T01:25:01.983Z,0
2017-10-14T01:26:01.668Z,0
2017-10-14T01:27:01.690Z,0
2017-10-14T01:28:02.039Z,0
2017-10-14T01:29:01.782Z,0
2017-10-14T01:30:02.087Z,0
2017-10-14T01:31:02.231Z,0
2017-10-14T01:32:03.625Z,0
2017-10-14T01:33:02.403Z,0
2017-10-14T01:34:01.830Z,0
2017-10-14T01:35:01.854Z,0
2017-10-14T01:36:01.890Z,0
2017-10-14T01:37:01.894Z,0
2017-10-14T01:38:01.946Z,0
2017-10-14T01:39:01.955Z,0
2017-10-14T01:40:01.962Z,0
2017-10-14T01:41:01.980Z,0
2017-10-14T01:42:02.009Z,0
2017-10-14T01:43:02.023Z,0
2017-10-14T01:44:02.093Z,0
2017-10-14T01:45:02.091Z,0
2017-10-14T01:46:02.085Z,0
2017-10-14T01:47:02.100Z,0
2017-10-14T01:48:02.446Z,0
2017-10-14T01:49:02.142Z,0
2017-10-14T01:50:02.159Z,0
2017-10-14T01:51:02.501Z,0
2017-10-14T01:52:02.205Z,0
2017-10-14T01:53:02.221Z,0
2017-10-14T01:54:02.249Z,0
2017-10-14T01:55:02.287Z,0
2017-10-14T01:56:02.299Z,0
2017-10-14T01:57:02.302Z,0
2017-10-14T01:58:02.654Z,0
2017-10-14T01:59:02.352Z,0
2017-10-14T02:00:02.439Z,0
2017-10-14T02:01:02.410Z,0
2017-10-14T02:02:02.410Z,0
2017-10-14T02:03:02.425Z,0
2017-10-14T02:04:02.773Z,0
2017-10-14T02:05:02.464Z,0
2017-10-14T02:06:02.499Z,0
2017-10-14T02:07:02.508Z,0
2017-10-14T02:08:02.533Z,0
2017-10-14T02:09:02.558Z,0
2017-10-14T02:10:02.897Z,0
2017-10-14T02:11:02.595Z,0
2017-10-14T02:12:02.611Z,0
2017-10-14T02:13:02.635Z,0
2017-10-14T02:14:02.660Z,0
2017-10-14T02:15:02.688Z,0
2017-10-14T02:16:02.691Z,0
2017-10-14T02:17:03.367Z,0
2017-10-14T02:18:02.794Z,0
2017-10-14T02:19:03.077Z,0
2017-10-14T02:20:02.778Z,0
2017-10-14T02:21:02.799Z,0
2017-10-14T02:22:02.835Z,0
2017-10-14T02:23:02.839Z,0
2017-10-14T02:24:02.859Z,0
2017-10-14T02:25:02.897Z,0
2017-10-14T02:26:02.900Z,0
2017-10-14T02:27:02.920Z,0
2017-10-14T02:28:02.937Z,0
2017-10-14T02:29:03.279Z,0
2017-10-14T02:30:02.976Z,0
2017-10-14T02:31:03.007Z,0
2017-10-14T02:32:03.029Z,0
2017-10-14T02:33:03.106Z,0
2017-10-14T02:34:03.388Z,0
2017-10-14T02:35:03.413Z,0
2017-10-14T02:36:03.102Z,0
2017-10-14T02:37:03.807Z,0
2017-10-14T02:38:03.155Z,0
2017-10-14T02:39:03.164Z,0
2017-10-14T02:40:03.191Z,0
2017-10-14T02:41:03.249Z,0
2017-10-14T02:42:03.227Z,0
2017-10-14T02:43:03.251Z,0
2017-10-14T02:44:03.264Z,0
2017-10-14T02:45:03.616Z,0
2017-10-14T02:46:03.310Z,0
2017-10-14T02:47:03.336Z,0
2017-10-14T02:48:03.366Z,0
2017-10-14T02:49:03.699Z,0
2017-10-14T02:50:03.388Z,0
2017-10-14T02:51:03.739Z,0
2017-10-14T02:52:03.423Z,0
2017-10-14T02:53:03.444Z,0
2017-10-14T02:54:03.803Z,0
2017-10-14T02:55:03.824Z,0
2017-10-14T02:56:03.597Z,0
2017-10-14T02:57:03.529Z,0
2017-10-14T02:58:03.547Z,0
2017-10-14T02:59:03.570Z,0
2017-10-14T03:00:03.590Z,0
2017-10-14T03:01:03.606Z,0
2017-10-14T03:02:03.630Z,0
2017-10-14T03:03:03.980Z,0
2017-10-14T03:04:03.672Z,0
2017-10-14T03:05:03.693Z,0
2017-10-14T03:06:03.747Z,0
2017-10-14T03:07:04.062Z,0
2017-10-14T03:08:04.072Z,0
2017-10-14T03:09:03.774Z,0
2017-10-14T03:10:03.848Z,0
2017-10-14T03:11:03.811Z,0
2017-10-14T03:12:03.848Z,0
2017-10-14T03:13:03.847Z,0
2017-10-14T03:14:03.886Z,0
2017-10-14T03:15:03.917Z,0
2017-10-14T03:16:03.921Z,0
2017-10-14T03:17:03.935Z,0
2017-10-14T03:18:04.283Z,0
2017-10-14T03:19:03.975Z,0
2017-10-14T03:20:03.996Z,0
2017-10-14T03:21:04.058Z,0
2017-10-14T03:22:04.037Z,0
2017-10-14T03:23:04.151Z,0
2017-10-14T03:24:04.071Z,0
2017-10-14T03:25:04.103Z,0
2017-10-14T03:26:04.120Z,0
2017-10-14T03:27:04.143Z,0
2017-10-14T03:28:04.160Z,0
2017-10-14T03:29:04.179Z,0
2017-10-14T03:30:04.209Z,0
2017-10-14T03:31:04.224Z,0
2017-10-14T03:32:04.246Z,0
2017-10-14T03:33:04.259Z,0
2017-10-14T03:34:04.332Z,0
2017-10-14T03:35:04.291Z,0
2017-10-14T03:36:04.633Z,0
2017-10-14T03:37:04.406Z,0
2017-10-14T03:38:04.354Z,0
2017-10-14T03:39:04.382Z,0
2017-10-14T03:40:04.392Z,0
2017-10-14T03:41:04.506Z,0
2017-10-14T03:42:04.444Z,0
2017-10-14T03:43:04.450Z,0
2017-10-14T03:44:04.475Z,0
2017-10-14T03:45:04.635Z,0
2017-10-14T03:46:04.520Z,0
2017-10-14T03:47:04.555Z,0
2017-10-14T03:48:04.565Z,0
2017-10-14T03:49:04.576Z,0
2017-10-14T03:50:04.597Z,0
2017-10-14T03:51:04.616Z,0
2017-10-14T03:52:04.696Z,0
2017-10-14T03:53:04.977Z,0
2017-10-14T03:54:04.690Z,0
2017-10-14T03:55:04.697Z,0
2017-10-14T03:56:04.741Z,0
2017-10-14T03:57:04.759Z,0
2017-10-14T03:58:04.758Z,0
2017-10-14T03:59:04.778Z,0
2017-10-14T04:00:04.790Z,0
2017-10-14T04:01:04.815Z,0
2017-10-14T04:02:04.833Z,0
2017-10-14T04:03:04.936Z,0
2017-10-14T04:04:06.340Z,0
2017-10-14T04:05:05.240Z,0
2017-10-14T04:06:05.246Z,0
2017-10-14T04:07:04.930Z,0
2017-10-14T04:08:05.113Z,0
2017-10-14T04:09:05.021Z,0
2017-10-14T04:10:05.988Z,0
2017-10-14T04:11:05.015Z,0
2017-10-14T04:12:05.032Z,0
2017-10-14T04:13:05.050Z,0
2017-10-14T04:14:05.143Z,0
2017-10-14T04:15:05.083Z,0
2017-10-14T04:16:05.112Z,0
2017-10-14T04:17:05.134Z,0
2017-10-14T04:18:05.146Z,0
2017-10-14T04:19:05.252Z,0
2017-10-14T04:20:05.195Z,0
2017-10-14T04:21:05.544Z,0
2017-10-14T04:22:05.225Z,0
2017-10-14T04:23:05.576Z,0
2017-10-14T04:24:05.265Z,0
2017-10-14T04:25:05.388Z,0
2017-10-14T04:26:05.302Z,0
2017-10-14T04:27:05.324Z,0
2017-10-14T04:28:05.394Z,0
2017-10-14T04:29:05.368Z,0
2017-10-14T04:30:05.419Z,0
2017-10-14T04:31:05.404Z,0
2017-10-14T04:32:05.425Z,0
2017-10-14T04:33:05.459Z,0
2017-10-14T04:34:05.469Z,0
2017-10-14T04:35:05.560Z,0
2017-10-14T04:36:05.507Z,0
2017-10-14T04:37:05.522Z,0
2017-10-14T04:38:05.548Z,0
2017-10-14T04:39:05.580Z,0
2017-10-14T04:40:05.580Z,0
2017-10-14T04:41:05.723Z,0
2017-10-14T04:42:05.626Z,0
2017-10-14T04:43:06.017Z,0
2017-10-14T04:44:05.662Z,0
2017-10-14T04:45:05.684Z,0
2017-10-14T04:46:05.697Z,0
2017-10-14T04:47:06.082Z,0
2017-10-14T04:48:05.744Z,0
2017-10-14T04:49:05.761Z,0
2017-10-14T04:50:05.785Z,0
2017-10-14T04:51:05.800Z,0
2017-10-14T04:52:05.815Z,0
2017-10-14T04:53:05.944Z,0
2017-10-14T04:54:05.877Z,0
2017-10-14T04:55:05.876Z,0
2017-10-14T04:56:05.903Z,0
2017-10-14T04:57:06.335Z,0
2017-10-14T04:58:06.318Z,0
2017-10-14T04:59:05.957Z,0
2017-10-14T05:00:06.320Z,0
2017-10-14T05:01:06.001Z,0
2017-10-14T05:02:06.024Z,0
2017-10-14T05:03:06.038Z,0
2017-10-14T05:04:06.532Z,0
2017-10-14T05:05:06.094Z,0
2017-10-14T05:06:06.100Z,0
2017-10-14T05:07:06.242Z,0
2017-10-14T05:08:06.656Z,0
2017-10-14T05:09:06.161Z,0
2017-10-14T05:10:06.221Z,0
2017-10-14T05:11:06.525Z,0
2017-10-14T05:12:06.572Z,0
2017-10-14T05:13:06.612Z,0
2017-10-14T05:14:06.252Z,0
2017-10-14T05:15:06.272Z,0
2017-10-14T05:16:06.396Z,0
2017-10-14T05:17:06.312Z,0
2017-10-14T05:18:06.765Z,0
2017-10-14T05:19:06.679Z,0
2017-10-14T05:20:06.371Z,0
2017-10-14T05:21:06.715Z,0
2017-10-14T05:22:06.409Z,0
2017-10-14T05:23:06.773Z,0
2017-10-14T05:24:06.448Z,0
2017-10-14T05:25:06.481Z,0
2017-10-14T05:26:06.493Z,0
2017-10-14T05:27:06.593Z,0
2017-10-14T05:28:06.527Z,5
2017-10-14T05:29:06.658Z,5
2017-10-14T05:30:06.914Z,5
2017-10-14T05:31:06.907Z,5
2017-10-14T05:32:06.988Z,5
2017-10-14T05:33:07.271Z,5
2017-10-14T05:34:06.645Z,5
2017-10-14T05:35:06.658Z,10
2017-10-14T05:36:06.679Z,10
2017-10-14T05:37:06.700Z,10
2017-10-14T05:38:06.768Z,10
2017-10-14T05:39:06.872Z,15
2017-10-14T05:40:06.767Z,15
2017-10-14T05:41:06.781Z,15
2017-10-14T05:42:06.800Z,15
2017-10-14T05:43:06.822Z,20
2017-10-14T05:44:06.842Z,20
2017-10-14T05:45:07.189Z,20
2017-10-14T05:46:06.873Z,20
2017-10-14T05:47:06.945Z,25
2017-10-14T05:48:06.911Z,25
2017-10-14T05:49:07.053Z,25
2017-10-14T05:50:07.356Z,25
2017-10-14T05:51:06.968Z,30
2017-10-14T05:52:06.993Z,30
2017-10-14T05:53:07.023Z,30
2017-10-14T05:54:07.352Z,30
2017-10-14T05:55:07.060Z,35
2017-10-14T05:56:07.099Z,35
2017-10-14T05:57:07.088Z,35
2017-10-14T05:58:07.105Z,35
2017-10-14T05:59:07.248Z,40
2017-10-14T06:00:07.486Z,40
2017-10-14T06:01:07.206Z,40
2017-10-14T06:02:07.190Z,40
2017-10-14T06:03:07.207Z,45
2017-10-14T06:04:07.230Z,45
2017-10-14T06:05:07.490Z,45
2017-10-14T06:06:07.624Z,50
2017-10-14T06:07:07.618Z,50
2017-10-14T06:08:07.306Z,50
2017-10-14T06:09:07.322Z,50
2017-10-14T06:10:07.437Z,55
2017-10-14T06:11:07.384Z,55
2017-10-14T06:12:07.435Z,55
2017-10-14T06:13:07.407Z,55
2017-10-14T06:14:07.426Z,60
2017-10-14T06:15:07.444Z,60
2017-10-14T06:16:07.481Z,60
2017-10-14T06:17:07.483Z,65
2017-10-14T06:18:07.563Z,65
2017-10-14T06:19:07.522Z,65
2017-10-14T06:20:07.885Z,65
2017-10-14T06:21:07.570Z,70
2017-10-14T06:22:07.595Z,70
2017-10-14T06:23:07.720Z,70
2017-10-14T06:24:07.623Z,75
2017-10-14T06:25:07.962Z,75
2017-10-14T06:26:07.673Z,75
2017-10-14T06:27:08.025Z,80
2017-10-14T06:28:07.712Z,80
2017-10-14T06:29:07.724Z,80
2017-10-14T06:30:07.739Z,80
2017-10-14T06:31:07.774Z,85
2017-10-14T06:32:07.800Z,85
2017-10-14T06:33:08.186Z,85
2017-10-14T06:34:07.817Z,90
2017-10-14T06:35:07.856Z,90
2017-10-14T06:36:08.227Z,90
2017-10-14T06:37:07.879Z,90
2017-10-14T06:38:07.901Z,95
2017-10-14T06:39:07.938Z,95
2017-10-14T06:40:07.958Z,95
2017-10-14T06:41:07.983Z,100
2017-10-14T06:42:08.003Z,100
2017-10-14T06:43:08.013Z,100
2017-10-14T06:44:08.355Z,105
2017-10-14T06:45:08.369Z,105
2017-10-14T06:46:08.065Z,105
2017-10-14T06:47:08.092Z,110
2017-10-14T06:48:08.121Z,110
2017-10-14T06:49:08.144Z,110
2017-10-14T06:50:08.147Z,115
2017-10-14T06:51:08.552Z,115
2017-10-14T06:52:08.255Z,115
2017-10-14T06:53:08.239Z,115
2017-10-14T06:54:08.552Z,115
2017-10-14T06:55:08.573Z,115
2017-10-14T06:56:08.286Z,115
2017-10-14T06:57:08.295Z,120
2017-10-14T06:58:08.638Z,120
2017-10-14T06:59:08.494Z,120
2017-10-14T07:00:08.401Z,125
2017-10-14T07:01:08.366Z,125
2017-10-14T07:02:08.493Z,125
2017-10-14T07:03:08.417Z,125
2017-10-14T07:04:08.455Z,130
2017-10-14T07:05:08.821Z,130
2017-10-14T07:06:08.528Z,130
2017-10-14T07:07:08.527Z,130
2017-10-14T07:08:08.517Z,135
2017-10-14T07:09:08.539Z,135
2017-10-14T07:10:08.579Z,135
2017-10-14T07:11:08.668Z,135
2017-10-14T07:12:08.684Z,140
2017-10-14T07:13:08.942Z,140
2017-10-14T07:14:08.645Z,140
2017-10-14T07:15:09.133Z,145
2017-10-14T07:16:08.689Z,145
2017-10-14T07:17:08.710Z,145
2017-10-14T07:18:08.727Z,145
2017-10-14T07:19:09.083Z,150
2017-10-14T07:20:09.090Z,150
2017-10-14T07:21:08.842Z,150
2017-10-14T07:22:09.057Z,155
2017-10-14T07:23:08.831Z,155
2017-10-14T07:24:08.857Z,155
2017-10-14T07:25:08.892Z,155
2017-10-14T07:26:08.910Z,160
2017-10-14T07:27:08.912Z,160
2017-10-14T07:28:08.943Z,160
2017-10-14T07:29:08.960Z,160
2017-10-14T07:30:09.014Z,165
2017-10-14T07:31:09.003Z,165
2017-10-14T07:32:09.377Z,165
2017-10-14T07:33:09.425Z,165
2017-10-14T07:34:09.133Z,170
2017-10-14T07:35:09.088Z,170
2017-10-14T07:36:09.110Z,170
2017-10-14T07:37:09.482Z,170
2017-10-14T07:38:09.533Z,170
2017-10-14T07:39:09.175Z,175
2017-10-14T07:40:09.538Z,180
2017-10-14T07:41:09.233Z,175
2017-10-14T07:42:09.314Z,175
2017-10-14T07:43:09.253Z,175
2017-10-14T07:44:09.457Z,175
2017-10-14T07:45:09.408Z,180
2017-10-14T07:46:09.323Z,180
2017-10-14T07:47:09.349Z,180
2017-10-14T07:48:09.380Z,180
2017-10-14T07:49:09.388Z,180
2017-10-14T07:50:09.408Z,185
2017-10-14T07:51:09.436Z,185
2017-10-14T07:52:09.453Z,185
2017-10-14T07:53:09.864Z,185
2017-10-14T07:54:09.646Z,185
2017-10-14T07:55:09.771Z,190
2017-10-14T07:56:10.300Z,190
2017-10-14T07:57:09.889Z,190
2017-10-14T07:58:09.593Z,190
2017-10-14T07:59:09.949Z,195
2017-10-14T08:00:09.633Z,190
2017-10-14T08:01:09.657Z,190
2017-10-14T08:02:09.674Z,190
2017-10-14T08:03:10.351Z,195
2017-10-14T08:04:10.046Z,195
2017-10-14T08:05:10.177Z,200
2017-10-14T08:06:09.771Z,200
2017-10-14T08:07:09.792Z,200
2017-10-14T08:08:09.868Z,200
2017-10-14T08:09:10.160Z,205
2017-10-14T08:10:09.860Z,205
2017-10-14T08:11:10.220Z,205
2017-10-14T08:12:09.914Z,205
2017-10-14T08:13:09.931Z,210
2017-10-14T08:14:10.272Z,210
2017-10-14T08:15:10.173Z,210
2017-10-14T08:16:09.991Z,210
2017-10-14T08:17:10.018Z,215
2017-10-14T08:18:10.050Z,215
2017-10-14T08:19:10.057Z,215
2017-10-14T08:20:10.213Z,220
2017-10-14T08:21:10.429Z,220
2017-10-14T08:22:10.132Z,220
2017-10-14T08:23:10.199Z,220
2017-10-14T08:24:10.168Z,225
2017-10-14T08:25:10.210Z,225
2017-10-14T08:26:10.556Z,225
2017-10-14T08:27:10.238Z,225
2017-10-14T08:28:10.266Z,225
2017-10-14T08:29:10.298Z,230
2017-10-14T08:30:10.395Z,230
2017-10-14T08:31:10.332Z,230
2017-10-14T08:32:10.451Z,230
2017-10-14T08:33:10.383Z,235
2017-10-14T08:34:10.407Z,235
2017-10-14T08:35:10.442Z,235
2017-10-14T08:36:10.509Z,235
2017-10-14T08:37:10.517Z,235
2017-10-14T08:38:10.494Z,240
2017-10-14T08:39:10.515Z,240
2017-10-14T08:40:10.907Z,240
2017-10-14T08:41:10.613Z,240
2017-10-14T08:42:10.591Z,245
2017-10-14T08:43:11.048Z,245
2017-10-14T08:44:10.961Z,245
2017-10-14T08:45:11.399Z,245
2017-10-14T08:46:10.687Z,245
2017-10-14T08:47:10.707Z,245
2017-10-14T08:48:10.783Z,245
2017-10-14T08:49:10.777Z,245
2017-10-14T08:50:10.779Z,245
2017-10-14T08:51:10.798Z,245
2017-10-14T08:52:10.828Z,245
2017-10-14T08:53:11.194Z,250
2017-10-14T08:54:10.980Z,250
2017-10-14T08:55:10.893Z,250
2017-10-14T08:56:10.974Z,250
2017-10-14T08:57:10.948Z,250
2017-10-14T08:58:11.107Z,255
2017-10-14T08:59:10.992Z,255
2017-10-14T09:00:11.019Z,260
2017-10-14T09:01:11.038Z,255
2017-10-14T09:02:11.061Z,255
2017-10-14T09:03:11.088Z,255
2017-10-14T09:04:11.104Z,255
2017-10-14T09:05:11.201Z,260
2017-10-14T09:06:11.243Z,260
2017-10-14T09:07:11.823Z,260
2017-10-14T09:08:11.210Z,260
2017-10-14T09:09:11.393Z,260
2017-10-14T09:10:11.250Z,260
2017-10-14T09:11:11.277Z,265
2017-10-14T09:12:11.297Z,265
2017-10-14T09:13:11.331Z,265
2017-10-14T09:14:11.352Z,265
2017-10-14T09:15:11.365Z,265
2017-10-14T09:16:11.391Z,265
2017-10-14T09:17:11.413Z,270
2017-10-14T09:18:11.448Z,270
2017-10-14T09:19:11.972Z,270
2017-10-14T09:20:11.495Z,270
2017-10-14T09:21:11.536Z,270
2017-10-14T09:22:11.542Z,270
2017-10-14T09:23:11.567Z,275
2017-10-14T09:24:11.583Z,275
2017-10-14T09:25:11.669Z,275
2017-10-14T09:26:11.630Z,275
2017-10-14T09:27:11.659Z,275
2017-10-14T09:28:12.050Z,275
2017-10-14T09:29:12.198Z,265
2017-10-14T09:30:12.246Z,265
2017-10-14T09:31:11.769Z,265
2017-10-14T09:32:11.801Z,265
2017-10-14T09:33:12.475Z,270
2017-10-14T09:34:11.827Z,270
2017-10-14T09:35:11.878Z,270
2017-10-14T09:36:11.875Z,270
2017-10-14T09:37:11.904Z,270
2017-10-14T09:38:11.925Z,270
2017-10-14T09:39:11.961Z,270
2017-10-14T09:40:12.302Z,270
2017-10-14T09:41:12.001Z,270
2017-10-14T09:42:12.034Z,270
2017-10-14T09:43:12.055Z,275
2017-10-14T09:44:12.073Z,275
2017-10-14T09:45:12.148Z,275
2017-10-14T09:46:12.138Z,275
2017-10-14T09:47:12.150Z,275
2017-10-14T09:48:12.182Z,275
2017-10-14T09:49:12.200Z,275
2017-10-14T09:50:12.238Z,275
2017-10-14T09:51:12.737Z,275
2017-10-14T09:52:12.634Z,280
2017-10-14T09:53:12.310Z,275
2017-10-14T09:54:12.345Z,280
2017-10-14T09:55:12.358Z,280
2017-10-14T09:56:12.400Z,285
2017-10-14T09:57:12.415Z,285
2017-10-14T09:58:12.432Z,285
2017-10-14T09:59:12.788Z,285
2017-10-14T10:00:12.483Z,335
2017-10-14T10:01:12.653Z,745
2017-10-14T10:02:12.545Z,1200
2017-10-14T10:03:12.552Z,1420
2017-10-14T10:04:12.691Z,1445
2017-10-14T10:05:12.619Z,1435
2017-10-14T10:06:12.636Z,1455
2017-10-14T10:07:12.663Z,1495
2017-10-14T10:08:13.020Z,1535
2017-10-14T10:09:12.732Z,1540
2017-10-14T10:10:13.073Z,1565
2017-10-14T10:11:13.276Z,1540
2017-10-14T10:12:12.791Z,1520
2017-10-14T10:13:12.828Z,1575
2017-10-14T10:14:12.858Z,1650
2017-10-14T10:15:13.134Z,1595
2017-10-14T10:16:12.909Z,1590
2017-10-14T10:17:12.949Z,1645
2017-10-14T10:18:13.013Z,1635
2017-10-14T10:19:12.996Z,1645
2017-10-14T10:20:13.360Z,1670
2017-10-14T10:21:13.381Z,1665
2017-10-14T10:22:13.546Z,1640
2017-10-14T10:23:13.129Z,1660
2017-10-14T10:24:13.479Z,1715
2017-10-14T10:25:13.185Z,1750
2017-10-14T10:26:13.319Z,1770
2017-10-14T10:27:13.248Z,1750
2017-10-14T10:28:13.275Z,1855
2017-10-14T10:29:13.299Z,1835
2017-10-14T10:30:13.339Z,1785
2017-10-14T10:31:13.376Z,1820
2017-10-14T10:32:14.005Z,1865
2017-10-14T10:33:13.751Z,1850
2017-10-14T10:34:13.473Z,1830
2017-10-14T10:35:13.525Z,1715
2017-10-14T10:36:13.531Z,1715
2017-10-14T10:37:13.614Z,2010
2017-10-14T10:38:13.943Z,2295
2017-10-14T10:39:13.963Z,1865
2017-10-14T10:40:13.677Z,1615
2017-10-14T10:41:14.049Z,1550
2017-10-14T10:42:13.754Z,1430
2017-10-14T10:43:13.763Z,1195
2017-10-14T10:44:13.804Z,1090
2017-10-14T10:45:14.159Z,1080
2017-10-14T10:46:14.517Z,1085
2017-10-14T10:47:13.906Z,1090
2017-10-14T10:48:13.940Z,1090
2017-10-14T10:49:14.036Z,1145
2017-10-14T10:50:14.003Z,1260
2017-10-14T10:51:14.034Z,1315
2017-10-14T10:52:14.128Z,1335
2017-10-14T10:53:14.430Z,1390
2017-10-14T10:54:14.145Z,1385
2017-10-14T10:55:14.177Z,1385
2017-10-14T10:56:14.537Z,1345
2017-10-14T10:57:14.268Z,1245
2017-10-14T10:58:14.304Z,1310
2017-10-14T10:59:14.349Z,1365
2017-10-14T11:00:14.359Z,1440
2017-10-14T11:01:14.741Z,1530
2017-10-14T11:02:14.762Z,1560
2017-10-14T11:03:14.470Z,1560
2017-10-14T11:04:14.492Z,1560
2017-10-14T11:05:14.530Z,1590
2017-10-14T11:06:14.574Z,1695
2017-10-14T11:07:14.673Z,1725
2017-10-14T11:08:14.961Z,1845
2017-10-14T11:09:14.993Z,1865
2017-10-14T11:10:15.103Z,1650
2017-10-14T11:11:14.748Z,1545
2017-10-14T11:12:14.787Z,1375
2017-10-14T11:13:14.862Z,1560
2017-10-14T11:14:14.857Z,1655
2017-10-14T11:15:14.893Z,1740
2017-10-14T11:16:14.939Z,1845
2017-10-14T11:17:15.301Z,1860
2017-10-14T11:18:15.004Z,1815
2017-10-14T11:19:15.043Z,1750
2017-10-14T11:20:15.078Z,1820
2017-10-14T11:21:15.124Z,1680
2017-10-14T11:22:15.206Z,1695
2017-10-14T11:23:15.187Z,1950
2017-10-14T11:24:15.554Z,1890
2017-10-14T11:25:15.261Z,1905
2017-10-14T11:26:15.667Z,2045
2017-10-14T11:27:15.336Z,2205
2017-10-14T11:28:15.376Z,1975
2017-10-14T11:29:15.416Z,2010
2017-10-14T11:30:15.798Z,2035
2017-10-14T11:31:15.806Z,1965
2017-10-14T11:32:15.523Z,2025
2017-10-14T11:33:15.881Z,2050
2017-10-14T11:34:15.602Z,2115
2017-10-14T11:35:15.640Z,2115
2017-10-14T11:36:15.670Z,2085
2017-10-14T11:37:15.792Z,2170
2017-10-14T11:38:15.768Z,2200
2017-10-14T11:39:16.107Z,2280
2017-10-14T11:40:15.824Z,2240
2017-10-14T11:41:15.861Z,2185
2017-10-14T11:42:15.901Z,2340
2017-10-14T11:43:16.281Z,2385
2017-10-14T11:44:15.991Z,2285
2017-10-14T11:45:16.020Z,2310
2017-10-14T11:46:16.054Z,2370
2017-10-14T11:47:16.085Z,2350
2017-10-14T11:48:16.809Z,2315
2017-10-14T11:49:16.179Z,2450
2017-10-14T11:50:16.449Z,2420
2017-10-14T11:51:16.274Z,2085
2017-10-14T11:52:16.328Z,1815
2017-10-14T11:53:16.375Z,1755
2017-10-14T11:54:16.363Z,1990
2017-10-14T11:55:16.397Z,2305
2017-10-14T11:56:16.686Z,2540
2017-10-14T11:57:16.484Z,2515
2017-10-14T11:58:16.511Z,2540
2017-10-14T11:59:16.626Z,2645
2017-10-14T12:00:16.591Z,2690
2017-10-14T12:01:16.636Z,2645
2017-10-14T12:02:16.665Z,2465
2017-10-14T12:03:16.699Z,2330
2017-10-14T12:04:16.741Z,2370
2017-10-14T12:05:17.113Z,2520
2017-10-14T12:06:17.147Z,2520
2017-10-14T12:07:16.870Z,2500
2017-10-14T12:08:17.230Z,2600
2017-10-14T12:09:16.939Z,2705
2017-10-14T12:10:17.106Z,2690
2017-10-14T12:11:17.338Z,2585
2017-10-14T12:12:17.064Z,2510
2017-10-14T12:13:17.424Z,2355
2017-10-14T12:14:17.134Z,2415
2017-10-14T12:15:17.174Z,2500
2017-10-14T12:16:17.218Z,2520
2017-10-14T12:17:17.253Z,2615
2017-10-14T12:18:17.301Z,2360
2017-10-14T12:19:17.334Z,2225
2017-10-14T12:20:17.386Z,2310
2017-10-14T12:21:17.410Z,2290
2017-10-14T12:22:17.454Z,1730
2017-10-14T12:23:17.490Z,1345
2017-10-14T12:24:17.548Z,1405
2017-10-14T12:25:17.783Z,1670
2017-10-14T12:26:17.625Z,2045
2017-10-14T12:27:17.983Z,2205
2017-10-14T12:28:17.751Z,1965
2017-10-14T12:29:18.060Z,1845
2017-10-14T12:30:17.770Z,1905
2017-10-14T12:31:17.819Z,2190
2017-10-14T12:32:18.193Z,2400
2017-10-14T12:33:17.897Z,2350
2017-10-14T12:34:17.943Z,2465
2017-10-14T12:35:17.983Z,2475
2017-10-14T12:36:18.017Z,2390
2017-10-14T12:37:18.065Z,2215
2017-10-14T12:38:19.951Z,2270
2017-10-14T12:39:19.618Z,2315
2017-10-14T12:40:18.190Z,2460
2017-10-14T12:41:18.223Z,2485
2017-10-14T12:42:18.601Z,2400
2017-10-14T12:43:18.455Z,2335
2017-10-14T12:44:18.348Z,2180
2017-10-14T12:45:18.386Z,2195
2017-10-14T12:46:18.432Z,2160
2017-10-14T12:47:18.459Z,2260
2017-10-14T12:48:18.842Z,2565
2017-10-14T12:49:18.890Z,2675
2017-10-14T12:50:18.581Z,2695
2017-10-14T12:51:18.622Z,2730
2017-10-14T12:52:18.674Z,2685
2017-10-14T12:53:19.027Z,2670
2017-10-14T12:54:18.752Z,2730
2017-10-14T12:55:20.648Z,2765
2017-10-14T12:56:18.832Z,2890
2017-10-14T12:57:18.877Z,3015
2017-10-14T12:58:18.954Z,2875
2017-10-14T12:59:18.945Z,2805
2017-10-14T13:00:18.989Z,2755
2017-10-14T13:01:19.049Z,2865
2017-10-14T13:02:19.112Z,2965
2017-10-14T13:03:19.506Z,2860
2017-10-14T13:04:19.190Z,2715
2017-10-14T13:05:19.190Z,2685
2017-10-14T13:06:19.250Z,2660
2017-10-14T13:07:19.307Z,2705
2017-10-14T13:08:20.162Z,2710
2017-10-14T13:09:19.404Z,2760
2017-10-14T13:10:19.475Z,2710
2017-10-14T13:11:19.503Z,2695
2017-10-14T13:12:19.508Z,2635
2017-10-14T13:13:19.594Z,2670
2017-10-14T13:14:19.625Z,2810
2017-10-14T13:15:19.970Z,2780
2017-10-14T13:16:19.679Z,2660
2017-10-14T13:17:19.751Z,2710
2017-10-14T13:18:20.181Z,2925
2017-10-14T13:19:20.428Z,2945
2017-10-14T13:20:19.833Z,3010
2017-10-14T13:21:19.867Z,2910
2017-10-14T13:22:19.938Z,2865
2017-10-14T13:23:19.935Z,2895
2017-10-14T13:24:20.289Z,2735
2017-10-14T13:25:20.400Z,2675
2017-10-14T13:26:20.079Z,2915
2017-10-14T13:27:20.492Z,2930
2017-10-14T13:28:20.228Z,2795
2017-10-14T13:29:20.215Z,2875
2017-10-14T13:30:20.217Z,2955
2017-10-14T13:31:20.334Z,2925
2017-10-14T13:32:20.293Z,2885
2017-10-14T13:33:20.385Z,2800
2017-10-14T13:34:20.397Z,2845
2017-10-14T13:35:20.450Z,2890
2017-10-14T13:36:20.479Z,2845
2017-10-14T13:37:20.851Z,2835
2017-10-14T13:38:20.547Z,2870
2017-10-14T13:39:20.599Z,2885
2017-10-14T13:40:20.635Z,2835
2017-10-14T13:41:20.656Z,2820
2017-10-14T13:42:21.019Z,2840
2017-10-14T13:43:20.730Z,2800
2017-10-14T13:44:20.821Z,2850
2017-10-14T13:45:21.158Z,2910
2017-10-14T13:46:21.308Z,3030
2017-10-14T13:47:20.947Z,2770
2017-10-14T13:48:21.023Z,2650
2017-10-14T13:49:20.974Z,3120
2017-10-14T13:50:21.010Z,3105
2017-10-14T13:51:21.051Z,2800
2017-10-14T13:52:21.450Z,2815
2017-10-14T13:53:21.164Z,2800
2017-10-14T13:54:21.185Z,2800
2017-10-14T13:55:21.371Z,2885
2017-10-14T13:56:21.304Z,2825
2017-10-14T13:57:21.382Z,2755
2017-10-14T13:58:21.351Z,2650
2017-10-14T13:59:21.759Z,2615
2017-10-14T14:00:21.425Z,2775
2017-10-14T14:01:22.136Z,2875
2017-10-14T14:02:21.862Z,2810
2017-10-14T14:03:21.589Z,2780